createdAt,value
2018-06-14T00:00:29.069Z,94151.56
2018-06-14T00:02:55.758Z,94150.27
2018-06-14T00:05:22.403Z,94141.07
2018-06-14T00:07:49.084Z,94145.25
2018-06-14T00:10:15.734Z,94145.45
2018-06-14T00:12:42.456Z,94145.82
2018-06-14T00:15:09.104Z,94150.16
2018-06-14T00:17:35.785Z,94148.30
2018-06-14T00:20:02.421Z,94150.00
2018-06-14T00:22:29.128Z,94140.80
2018-06-14T00:24:55.783Z,94152.50
2018-06-14T00:27:22.486Z,94165.85
2018-06-14T00:29:49.162Z,94166.32
2018-06-14T00:32:17.806Z,94163.44
2018-06-14T00:34:44.534Z,94164.35
2018-06-14T00:37:11.148Z,94156.10
2018-06-14T00:39:37.869Z,94155.73
2018-06-14T00:42:04.561Z,94159.73
2018-06-14T00:44:31.271Z,94157.11
2018-06-14T00:46:57.864Z,94160.27
2018-06-14T00:49:24.586Z,94160.27
2018-06-14T00:51:51.210Z,94155.65
2018-06-14T00:54:17.906Z,94144.69
2018-06-14T00:56:44.555Z,94153.41
2018-06-14T00:59:11.209Z,94149.50
2018-06-14T01:01:37.872Z,94142.55
2018-06-14T01:04:04.558Z,94151.55
2018-06-14T01:06:31.240Z,94143.56
2018-06-14T01:08:57.922Z,94144.12
2018-06-14T01:11:24.540Z,94138.19
2018-06-14T01:13:51.290Z,94139.68
2018-06-14T01:16:17.955Z,94145.89
2018-06-14T01:18:44.651Z,94143.92
2018-06-14T01:21:11.409Z,94156.45
2018-06-14T01:23:38.063Z,94152.64
2018-06-14T01:26:04.756Z,94151.62
2018-06-14T01:28:31.477Z,94137.34
2018-06-14T01:30:58.129Z,94145.79
2018-06-14T01:33:24.800Z,94136.96
2018-06-14T01:35:51.479Z,94129.19
2018-06-14T01:38:18.176Z,94125.28
2018-06-14T01:40:44.840Z,94131.70
2018-06-14T01:43:11.648Z,94131.28
2018-06-14T01:45:38.302Z,94124.27
2018-06-14T01:48:04.954Z,94115.61
2018-06-14T01:50:31.640Z,94111.64
2018-06-14T01:52:58.285Z,94123.69
2018-06-14T01:55:24.986Z,94131.19
2018-06-14T01:57:51.654Z,94128.50
2018-06-14T02:00:18.347Z,94129.63
2018-06-14T02:02:44.986Z,94124.05
2018-06-14T02:05:11.689Z,94122.19
2018-06-14T02:07:38.395Z,94116.72
2018-06-14T02:10:05.100Z,94111.90
2018-06-14T02:12:31.773Z,94118.19
2018-06-14T02:14:58.457Z,94119.13
2018-06-14T02:17:25.115Z,94119.20
2018-06-14T02:19:51.769Z,94121.06
2018-06-14T02:22:18.504Z,94127.64
2018-06-14T02:24:45.151Z,94131.00
2018-06-14T02:27:11.815Z,94134.88
2018-06-14T02:29:38.459Z,94127.84
2018-06-14T02:32:05.109Z,94128.39
2018-06-14T02:34:31.771Z,94127.58
2018-06-14T02:36:58.448Z,94135.53
2018-06-14T02:39:25.145Z,94131.06
2018-06-14T02:41:51.779Z,94125.88
2018-06-14T02:44:18.440Z,94124.20
2018-06-14T02:46:45.093Z,94124.48
2018-06-14T02:49:11.760Z,94132.10
2018-06-14T02:51:38.449Z,94132.01
2018-06-14T02:54:05.143Z,94140.82
2018-06-14T02:56:31.877Z,94141.47
2018-06-14T02:58:58.517Z,94146.28
2018-06-14T03:01:25.180Z,94147.77
2018-06-14T03:03:51.839Z,94147.95
2018-06-14T03:06:18.484Z,94151.38
2018-06-14T03:08:45.136Z,94157.52
2018-06-14T03:11:11.812Z,94159.33
2018-06-14T03:13:38.461Z,94159.06
2018-06-14T03:16:05.116Z,94165.94
2018-06-14T03:18:31.771Z,94168.05
2018-06-14T03:20:58.427Z,94168.13
2018-06-14T03:23:25.102Z,94171.06
2018-06-14T03:25:51.731Z,94153.28
2018-06-14T03:28:18.386Z,94153.66
2018-06-14T03:30:45.073Z,94150.32
2018-06-14T03:33:11.703Z,94148.12
2018-06-14T03:35:38.355Z,94148.12
2018-06-14T03:38:05.055Z,94143.29
2018-06-14T03:40:31.690Z,94138.27
2018-06-14T03:42:58.430Z,94142.17
2018-06-14T03:45:25.129Z,94144.74
2018-06-14T03:47:51.747Z,94141.70
2018-06-14T03:50:18.425Z,94139.30
2018-06-14T03:52:45.141Z,94135.58
2018-06-14T03:55:11.764Z,94125.20
2018-06-14T03:57:38.446Z,94125.85
2018-06-14T04:00:05.105Z,94122.14
2018-06-14T04:02:31.805Z,94120.66
2018-06-14T04:04:58.426Z,94124.78
2018-06-14T04:07:25.119Z,94124.04
2018-06-14T04:09:51.745Z,94134.65
2018-06-14T04:12:18.394Z,94133.05
2018-06-14T04:14:45.074Z,94144.83
2018-06-14T04:17:11.732Z,94153.63
2018-06-14T04:19:38.404Z,94156.55
2018-06-14T04:22:05.071Z,94153.39
2018-06-14T04:24:31.747Z,94156.12
2018-06-14T04:26:58.406Z,94149.64
2018-06-14T04:29:25.112Z,94154.94
2018-06-14T04:31:51.770Z,94166.29
2018-06-14T04:34:18.391Z,94165.02
2018-06-14T04:36:45.042Z,94156.56
2018-06-14T04:39:11.719Z,94153.41
2018-06-14T04:41:38.371Z,94148.50
2018-06-14T04:44:05.032Z,94146.19
2018-06-14T04:46:31.729Z,94160.66
2018-06-14T04:48:58.359Z,94154.72
2018-06-14T04:51:25.019Z,94159.00
2018-06-14T04:53:51.699Z,94153.14
2018-06-14T04:56:18.350Z,94150.72
2018-06-14T04:58:45.049Z,94161.97
2018-06-14T05:01:11.823Z,94162.44
2018-06-14T05:03:38.520Z,94160.47
2018-06-14T05:06:05.177Z,94164.20
2018-06-14T05:08:31.805Z,94165.22
2018-06-14T05:10:58.612Z,94165.12
2018-06-14T05:13:25.274Z,94168.75
2018-06-14T05:15:51.952Z,94165.66
2018-06-14T05:18:18.621Z,94170.96
2018-06-14T05:20:45.273Z,94171.23
2018-06-14T05:23:11.947Z,94170.23
2018-06-14T05:25:38.608Z,94174.23
2018-06-14T05:28:05.266Z,94169.41
2018-06-14T05:30:31.970Z,94178.69
2018-06-14T05:32:58.593Z,94172.20
2018-06-14T05:35:25.258Z,94164.77
2018-06-14T05:37:51.908Z,94164.02
2018-06-14T05:40:18.625Z,94157.70
2018-06-14T05:42:45.286Z,94145.81
2018-06-14T05:45:11.940Z,94139.03
2018-06-14T05:47:39.953Z,94138.48
2018-06-14T05:50:05.319Z,94136.50
2018-06-14T05:52:32.016Z,94156.75
2018-06-14T05:54:58.645Z,94156.73
2018-06-14T05:57:25.431Z,94154.66
2018-06-14T05:59:52.133Z,94147.98
2018-06-14T06:02:18.761Z,94147.98
2018-06-14T06:04:45.560Z,94156.53
2018-06-14T06:07:12.232Z,94151.81
2018-06-14T06:09:38.892Z,94151.33
2018-06-14T06:12:05.573Z,94158.56
2018-06-14T06:14:32.255Z,94160.98
2018-06-14T06:16:58.918Z,94164.03
2018-06-14T06:19:25.605Z,94164.24
2018-06-14T06:21:52.298Z,94163.22
2018-06-14T06:24:19.010Z,94156.05
2018-06-14T06:26:45.677Z,94158.02
2018-06-14T06:29:12.334Z,94171.31
2018-06-14T06:31:39.024Z,94180.49
2018-06-14T06:34:05.689Z,94173.25
2018-06-14T06:36:32.355Z,94174.48
2018-06-14T06:38:59.009Z,94167.79
2018-06-14T06:41:25.689Z,94183.77
2018-06-14T06:43:52.346Z,94190.53
2018-06-14T06:46:19.036Z,94190.46
2018-06-14T06:48:45.697Z,94192.67
2018-06-14T06:51:12.376Z,94194.27
2018-06-14T06:53:39.048Z,94200.76
2018-06-14T06:56:05.668Z,94195.18
2018-06-14T06:58:32.346Z,94191.17
2018-06-14T07:00:59.008Z,94192.28
2018-06-14T07:03:25.734Z,94202.79
2018-06-14T07:05:52.461Z,94203.91
2018-06-14T07:08:19.127Z,94202.03
2018-06-14T07:10:45.770Z,94198.05
2018-06-14T07:13:12.484Z,94205.84
2018-06-14T07:15:39.098Z,94203.80
2018-06-14T07:18:05.783Z,94213.20
2018-06-14T07:20:32.419Z,94209.00
2018-06-14T07:22:59.109Z,94203.81
2018-06-14T07:25:25.827Z,94194.63
2018-06-14T07:27:54.568Z,94204.27
2018-06-14T07:30:21.538Z,94212.55
2018-06-14T07:32:48.197Z,94212.81
2018-06-14T07:35:14.901Z,94214.96
2018-06-14T07:37:41.592Z,94217.17
2018-06-14T07:40:08.270Z,94223.02
2018-06-14T07:42:34.880Z,94223.66
2018-06-14T07:45:01.550Z,94232.47
2018-06-14T07:47:28.301Z,94232.18
2018-06-14T07:49:54.966Z,94242.38
2018-06-14T07:52:21.625Z,94249.98
2018-06-14T07:54:49.274Z,94260.90
2018-06-14T07:57:15.969Z,94267.31
2018-06-14T07:59:42.641Z,94272.32
2018-06-14T08:02:09.297Z,94272.32
2018-06-14T08:04:35.953Z,94278.38
2018-06-14T08:07:02.650Z,94277.92
2018-06-14T08:09:29.341Z,94280.90
2018-06-14T08:11:55.958Z,94275.03
2018-06-14T08:14:22.663Z,94278.67
2018-06-14T08:16:49.711Z,94276.26
2018-06-14T08:19:16.448Z,94277.72
2018-06-14T08:21:43.155Z,94269.18
2018-06-14T08:24:09.859Z,94276.05
2018-06-14T08:26:36.533Z,94281.42
2018-06-14T08:29:03.185Z,94277.91
2018-06-14T08:31:29.845Z,94279.23
2018-06-14T08:33:56.512Z,94282.06
2018-06-14T08:36:23.220Z,94283.66
2018-06-14T08:38:50.291Z,94287.59
2018-06-14T08:41:16.961Z,94288.88
2018-06-14T08:43:43.628Z,94294.25
2018-06-14T08:46:10.325Z,94291.66
2018-06-14T08:48:36.983Z,94289.78
2018-06-14T08:51:03.675Z,94289.59
2018-06-14T08:53:30.339Z,94287.22
2018-06-14T08:55:57.044Z,94298.46
2018-06-14T08:58:23.712Z,94300.13
2018-06-14T09:00:50.336Z,94294.18
2018-06-14T09:03:16.997Z,94291.56
2018-06-14T09:05:43.672Z,94286.20
2018-06-14T09:08:10.376Z,94281.81
2018-06-14T09:10:37.068Z,94283.67
2018-06-14T09:13:03.732Z,94278.44
2018-06-14T09:15:30.391Z,94276.09
2018-06-14T09:17:57.058Z,94283.36
2018-06-14T09:20:24.356Z,94283.05
2018-06-14T09:22:51.065Z,94278.67
2018-06-14T09:25:17.728Z,94267.58
2018-06-14T09:27:44.351Z,94271.11
2018-06-14T09:30:10.992Z,94271.02
2018-06-14T09:32:37.649Z,94265.55
2018-06-14T09:35:04.363Z,94272.89
2018-06-14T09:37:31.023Z,94283.20
2018-06-14T09:39:57.691Z,94287.55
2018-06-14T09:42:24.360Z,94283.74
2018-06-14T09:44:51.044Z,94290.70
2018-06-14T09:47:17.753Z,94290.52
2018-06-14T09:49:44.417Z,94283.56
2018-06-14T09:52:11.078Z,94272.14
2018-06-14T09:54:37.873Z,94265.64
2018-06-14T09:57:04.545Z,94266.02
2018-06-14T09:59:31.221Z,94262.66
2018-06-14T10:01:57.989Z,94263.41
2018-06-14T10:04:24.691Z,94256.53
2018-06-14T10:06:51.403Z,94259.22
2018-06-14T10:09:18.137Z,94247.29
2018-06-14T10:11:44.822Z,94241.13
2018-06-14T10:14:11.527Z,94241.09
2018-06-14T10:16:38.196Z,94231.23
2018-06-14T10:19:04.924Z,94219.25
2018-06-14T10:21:31.619Z,94215.35
2018-06-14T10:23:58.368Z,94209.98
2018-06-14T10:26:25.057Z,94203.92
2018-06-14T10:28:51.674Z,94205.72
2018-06-14T10:31:18.343Z,94200.23
2018-06-14T10:33:45.035Z,94209.52
2018-06-14T10:36:11.714Z,94197.88
2018-06-14T10:38:38.432Z,94206.19
2018-06-14T10:41:05.095Z,94207.84
2018-06-14T10:43:31.842Z,94203.19
2018-06-14T10:45:58.450Z,94210.09
2018-06-14T10:48:25.593Z,94207.57
2018-06-14T10:50:52.256Z,94202.73
2018-06-14T10:53:18.916Z,94192.34
2018-06-14T10:55:45.601Z,94185.05
2018-06-14T10:58:12.369Z,94191.53
2018-06-14T11:00:39.083Z,94185.14
2018-06-14T11:03:05.782Z,94194.70
2018-06-14T11:05:32.609Z,94191.71
2018-06-14T11:07:59.259Z,94194.78
2018-06-14T11:10:25.951Z,94185.39
2018-06-14T11:12:52.659Z,94193.27
2018-06-14T11:15:19.311Z,94188.20
2018-06-14T11:17:46.057Z,94195.15
2018-06-14T11:20:12.889Z,94192.48
2018-06-14T11:22:39.549Z,94187.93
2018-06-14T11:25:06.247Z,94190.03
2018-06-14T11:27:32.910Z,94187.39
2018-06-14T11:29:59.677Z,94190.16
2018-06-14T11:32:26.277Z,94188.62
2018-06-14T11:34:52.975Z,94189.86
2018-06-14T11:37:19.639Z,94184.67
2018-06-14T11:39:46.286Z,94166.83
2018-06-14T11:42:12.963Z,94167.42
2018-06-14T11:44:39.932Z,94162.31
2018-06-14T11:47:06.674Z,94168.38
2018-06-14T11:49:33.351Z,94169.91
2018-06-14T11:52:00.060Z,94164.34
2018-06-14T11:54:26.778Z,94155.03
2018-06-14T11:56:53.517Z,94150.94
2018-06-14T11:59:20.184Z,94160.63
2018-06-14T12:01:46.963Z,94165.39
2018-06-14T12:04:13.656Z,94159.92
2018-06-14T12:06:40.299Z,94162.83
2018-06-14T12:09:06.960Z,94158.90
2018-06-14T12:11:33.634Z,94159.83
2018-06-14T12:14:00.347Z,94154.27
2018-06-14T12:16:27.110Z,94157.69
2018-06-14T12:18:53.799Z,94157.73
2018-06-14T12:21:20.521Z,94159.89
2018-06-14T12:23:47.162Z,94159.59
2018-06-14T12:26:15.152Z,94160.86
2018-06-14T12:28:40.581Z,94152.00
2018-06-14T12:31:07.218Z,94147.01
2018-06-14T12:33:33.999Z,94133.75
2018-06-14T12:36:00.619Z,94131.13
2018-06-14T12:38:27.278Z,94150.88
2018-06-14T12:40:54.000Z,94162.65
2018-06-14T12:43:20.733Z,94164.53
2018-06-14T12:45:47.436Z,94156.20
2018-06-14T12:48:14.111Z,94158.00
2018-06-14T12:50:40.858Z,94162.97
2018-06-14T12:53:07.532Z,94163.48
2018-06-14T12:55:34.183Z,94171.35
2018-06-14T12:58:00.901Z,94168.19
2018-06-14T13:00:30.642Z,94169.46
2018-06-14T13:02:57.291Z,94172.58
2018-06-14T13:05:23.951Z,94180.75
2018-06-14T13:07:50.629Z,94168.56
2018-06-14T13:10:17.371Z,94177.52
2018-06-14T13:12:44.067Z,94176.28
2018-06-14T13:15:10.774Z,94175.57
2018-06-14T13:17:37.580Z,94168.53
2018-06-14T13:20:04.248Z,94163.91
2018-06-14T13:22:30.975Z,94173.30
2018-06-14T13:24:57.814Z,94172.38
2018-06-14T13:27:24.556Z,94180.52
2018-06-14T13:29:51.337Z,94178.61
2018-06-14T13:32:18.030Z,94173.61
2018-06-14T13:34:44.777Z,94182.14
2018-06-14T13:37:11.444Z,94180.08
2018-06-14T13:39:38.292Z,94174.79
2018-06-14T13:42:04.977Z,94173.03
2018-06-14T13:44:31.683Z,94179.72
2018-06-14T13:46:58.367Z,94177.33
2018-06-14T13:49:27.510Z,94182.27
2018-06-14T13:51:54.197Z,94187.34
2018-06-14T13:54:20.833Z,94189.98
2018-06-14T13:56:47.503Z,94179.61
2018-06-14T13:59:14.248Z,94188.92
2018-06-14T14:01:40.897Z,94185.01
2018-06-14T14:04:07.558Z,94178.66
2018-06-14T14:06:34.306Z,94167.16
2018-06-14T14:09:00.960Z,94166.70
2018-06-14T14:11:27.701Z,94162.06
2018-06-14T14:13:54.550Z,94154.41
2018-06-14T14:16:21.215Z,94143.84
2018-06-14T14:18:47.867Z,94146.95
2018-06-14T14:21:14.570Z,94142.83
2018-06-14T14:23:41.234Z,94139.07
2018-06-14T14:26:07.964Z,94138.38
2018-06-14T14:28:34.615Z,94136.39
2018-06-14T14:31:01.294Z,94134.06
2018-06-14T14:33:27.976Z,94126.76
2018-06-14T14:35:54.668Z,94132.24
2018-06-14T14:38:21.336Z,94129.30
2018-06-14T14:40:48.039Z,94126.27
2018-06-14T14:43:14.685Z,94125.23
2018-06-14T14:45:41.355Z,94128.47
2018-06-14T14:48:08.046Z,94133.09
2018-06-14T14:50:34.884Z,94137.61
2018-06-14T14:53:01.596Z,94130.98
2018-06-14T14:55:28.212Z,94136.31
2018-06-14T14:57:54.835Z,94132.77
2018-06-14T15:00:21.545Z,94128.55
2018-06-14T15:02:48.205Z,94129.47
2018-06-14T15:05:14.919Z,94127.11
2018-06-14T15:07:41.612Z,94130.79
2018-06-14T15:10:08.309Z,94133.05
2018-06-14T15:12:34.937Z,94130.41
2018-06-14T15:15:01.675Z,94126.11
2018-06-14T15:17:28.379Z,94129.63
2018-06-14T15:19:55.015Z,94121.84
2018-06-14T15:22:21.713Z,94122.30
2018-06-14T15:24:48.533Z,94119.36
2018-06-14T15:27:15.305Z,94111.03
2018-06-14T15:29:41.938Z,94109.80
2018-06-14T15:32:08.638Z,94101.56
2018-06-14T15:34:35.302Z,94092.03
2018-06-14T15:37:01.986Z,94091.20
2018-06-14T15:39:28.676Z,94088.33
2018-06-14T15:41:55.308Z,94074.82
2018-06-14T15:44:21.966Z,94079.42
2018-06-14T15:46:48.719Z,94072.67
2018-06-14T15:49:15.365Z,94075.49
2018-06-14T15:51:42.026Z,94076.14
2018-06-14T15:54:08.719Z,94075.98
2018-06-14T15:56:35.380Z,94074.86
2018-06-14T15:59:02.016Z,94085.84
2018-06-14T16:01:28.736Z,94079.05
2018-06-14T16:03:55.407Z,94079.81
2018-06-14T16:06:22.055Z,94085.47
2018-06-14T16:08:48.729Z,94092.47
2018-06-14T16:11:15.448Z,94096.02
2018-06-14T16:13:42.243Z,94098.69
2018-06-14T16:16:08.918Z,94091.59
2018-06-14T16:18:35.542Z,94088.64
2018-06-14T16:21:02.260Z,94079.41
2018-06-14T16:23:28.920Z,94077.10
2018-06-14T16:25:55.580Z,94077.66
2018-06-14T16:28:22.236Z,94087.33
2018-06-14T16:30:48.886Z,94091.61
2018-06-14T16:33:15.546Z,94096.69
2018-06-14T16:35:42.251Z,94098.83
2018-06-14T16:38:08.902Z,94099.73
2018-06-14T16:40:35.575Z,94100.38
2018-06-14T16:43:02.399Z,94095.09
2018-06-14T16:45:29.083Z,94107.94
2018-06-14T16:47:55.709Z,94113.31
2018-06-14T16:50:22.367Z,94115.24
2018-06-14T16:52:49.035Z,94123.36
2018-06-14T16:55:15.710Z,94125.11
2018-06-14T16:57:42.473Z,94128.92
2018-06-14T17:00:09.192Z,94136.11
2018-06-14T17:02:35.816Z,94144.84
2018-06-14T17:05:02.554Z,94148.22
2018-06-14T17:07:29.159Z,94147.72
2018-06-14T17:09:55.848Z,94145.53
2018-06-14T17:12:22.539Z,94148.56
2018-06-14T17:14:49.217Z,94151.68
2018-06-14T17:17:15.926Z,94153.53
2018-06-14T17:19:42.573Z,94153.06
2018-06-14T17:22:09.223Z,94151.98
2018-06-14T17:24:35.919Z,94157.19
2018-06-14T17:27:02.562Z,94158.40
2018-06-14T17:29:32.474Z,94163.72
2018-06-14T17:31:59.094Z,94166.04
2018-06-14T17:34:25.782Z,94171.06
2018-06-14T17:36:52.421Z,94169.52
2018-06-14T17:39:19.082Z,94168.56
2018-06-14T17:41:45.780Z,94168.22
2018-06-14T17:44:12.446Z,94167.66
2018-06-14T17:46:39.182Z,94169.44
2018-06-14T17:49:05.833Z,94174.17
2018-06-14T17:51:32.470Z,94170.09
2018-06-14T17:53:59.173Z,94171.87
2018-06-14T17:56:25.915Z,94168.27
2018-06-14T17:58:52.545Z,94164.09
2018-06-14T18:01:19.232Z,94159.52
2018-06-14T18:03:45.916Z,94164.00
2018-06-14T18:06:12.610Z,94158.78
2018-06-14T18:08:39.316Z,94160.36
2018-06-14T18:11:05.926Z,94164.48
2018-06-14T18:13:32.625Z,94169.38
2018-06-14T18:15:59.291Z,94168.28
2018-06-14T18:18:25.954Z,94166.80
2018-06-14T18:20:52.611Z,94167.44
2018-06-14T18:23:19.276Z,94160.67
2018-06-14T18:25:45.980Z,94165.04
2018-06-14T18:28:12.660Z,94175.35
2018-06-14T18:30:39.291Z,94180.73
2018-06-14T18:33:06.029Z,94187.53
2018-06-14T18:35:32.646Z,94195.07
2018-06-14T18:37:59.370Z,94198.22
2018-06-14T18:40:26.083Z,94209.27
2018-06-14T18:42:52.748Z,94209.59
2018-06-14T18:45:19.529Z,94215.87
2018-06-14T18:47:46.097Z,94218.50
2018-06-14T18:50:12.841Z,94218.02
2018-06-14T18:52:39.516Z,94211.53
2018-06-14T18:55:06.176Z,94214.31
2018-06-14T18:57:32.818Z,94215.72
2018-06-14T18:59:59.601Z,94223.61
2018-06-14T19:02:26.247Z,94225.65
2018-06-14T19:04:52.942Z,94228.64
2018-06-14T19:07:19.668Z,94235.72
2018-06-14T19:09:46.356Z,94224.63
2018-06-14T19:12:13.071Z,94233.95
2018-06-14T19:14:39.726Z,94232.73
2018-06-14T19:17:06.486Z,94233.10
2018-06-14T19:19:33.132Z,94234.13
2018-06-14T19:21:59.767Z,94232.08
2018-06-14T19:24:26.449Z,94229.67
2018-06-14T19:26:53.078Z,94231.81
2018-06-14T19:29:19.755Z,94235.62
2018-06-14T19:31:46.431Z,94237.02
2018-06-14T19:34:13.143Z,94237.59
2018-06-14T19:36:39.827Z,94242.32
2018-06-14T19:39:06.478Z,94239.80
2018-06-14T19:41:33.085Z,94245.01
2018-06-14T19:43:59.759Z,94242.69
2018-06-14T19:46:26.472Z,94236.64
2018-06-14T19:48:53.231Z,94236.20
2018-06-14T19:51:19.855Z,94235.17
2018-06-14T19:53:46.512Z,94227.27
2018-06-14T19:56:13.209Z,94227.63
2018-06-14T19:58:39.866Z,94234.16
2018-06-14T20:01:06.651Z,94235.83
2018-06-14T20:03:33.224Z,94241.30
2018-06-14T20:05:59.894Z,94238.41
2018-06-14T20:08:26.541Z,94239.44
2018-06-14T20:10:53.243Z,94239.37
2018-06-14T20:13:19.930Z,94234.61
2018-06-14T20:15:46.609Z,94240.93
2018-06-14T20:18:13.281Z,94243.92
2018-06-14T20:20:39.979Z,94246.34
2018-06-14T20:23:06.600Z,94235.62
2018-06-14T20:25:33.310Z,94237.23
2018-06-14T20:28:00.009Z,94238.63
2018-06-14T20:30:26.680Z,94238.52
2018-06-14T20:32:53.329Z,94245.77
2018-06-14T20:35:20.052Z,94245.96
2018-06-14T20:37:46.724Z,94248.48
2018-06-14T20:40:13.337Z,94246.44
2018-06-14T20:42:40.010Z,94243.34
2018-06-14T20:45:06.656Z,94243.17
2018-06-14T20:47:33.313Z,94236.48
2018-06-14T20:49:59.971Z,94237.59
2018-06-14T20:52:26.635Z,94233.25
2018-06-14T20:54:53.372Z,94238.72
2018-06-14T20:57:20.003Z,94238.45
2018-06-14T20:59:46.660Z,94234.71
2018-06-14T21:02:13.414Z,94230.73
2018-06-14T21:04:40.031Z,94229.61
2018-06-14T21:07:06.719Z,94229.88
2018-06-14T21:09:33.355Z,94226.34
2018-06-14T21:12:00.081Z,94224.03
2018-06-14T21:14:26.716Z,94219.11
2018-06-14T21:16:53.372Z,94223.11
2018-06-14T21:19:20.027Z,94219.03
2018-06-14T21:21:46.688Z,94219.85
2018-06-14T21:24:13.399Z,94227.67
2018-06-14T21:26:40.089Z,94229.81
2018-06-14T21:29:06.803Z,94227.39
2018-06-14T21:31:33.469Z,94225.16
2018-06-14T21:34:00.131Z,94224.50
2018-06-14T21:36:26.893Z,94222.27
2018-06-14T21:38:53.564Z,94226.07
2018-06-14T21:41:20.215Z,94226.74
2018-06-14T21:43:46.940Z,94231.64
2018-06-14T21:46:13.604Z,94234.33
2018-06-14T21:48:40.331Z,94239.05
2018-06-14T21:51:06.956Z,94236.09
2018-06-14T21:53:33.712Z,94231.70
2018-06-14T21:56:00.395Z,94229.77
2018-06-14T21:58:27.055Z,94228.92
2018-06-14T22:00:53.740Z,94228.38
2018-06-14T22:03:20.510Z,94225.48
2018-06-14T22:05:47.213Z,94224.36
2018-06-14T22:08:13.823Z,94220.02
2018-06-14T22:10:40.499Z,94223.81
2018-06-14T22:13:07.182Z,94219.64
2018-06-14T22:15:33.879Z,94221.50
2018-06-14T22:18:00.504Z,94218.61
2018-06-14T22:20:27.181Z,94219.53
2018-06-14T22:22:53.853Z,94216.75
2018-06-14T22:25:20.494Z,94221.13
2018-06-14T22:27:47.247Z,94215.01
2018-06-14T22:30:13.876Z,94219.35
2018-06-14T22:32:40.542Z,94219.45
2018-06-14T22:35:07.252Z,94215.44
2018-06-14T22:37:34.013Z,94221.77
2018-06-14T22:40:00.668Z,94221.59
2018-06-14T22:42:27.359Z,94221.76
2018-06-14T22:44:55.398Z,94227.22
2018-06-14T22:47:20.681Z,94222.87
2018-06-14T22:49:47.380Z,94222.02
2018-06-14T22:52:14.039Z,94223.41
2018-06-14T22:54:40.720Z,94226.20
2018-06-14T22:57:07.362Z,94235.50
2018-06-14T22:59:34.054Z,94235.11
2018-06-14T23:02:00.735Z,94234.91
2018-06-14T23:04:27.394Z,94227.23
2018-06-14T23:06:54.090Z,94224.52
2018-06-14T23:09:20.796Z,94219.70
2018-06-14T23:11:47.459Z,94231.30
2018-06-14T23:14:14.183Z,94228.25
2018-06-14T23:16:41.827Z,94230.28
2018-06-14T23:19:07.493Z,94226.95
2018-06-14T23:21:34.215Z,94225.83
2018-06-14T23:24:00.885Z,94229.63
2018-06-14T23:26:27.570Z,94225.07
2018-06-14T23:28:54.288Z,94227.20
2018-06-14T23:31:20.901Z,94225.16
2018-06-14T23:33:47.560Z,94224.42
2018-06-14T23:36:14.246Z,94225.16
2018-06-14T23:38:40.895Z,94227.67
2018-06-14T23:41:07.584Z,94228.11
2018-06-14T23:43:34.252Z,94233.78
2018-06-14T23:46:00.947Z,94236.39
2018-06-14T23:48:27.601Z,94238.23
2018-06-14T23:50:54.238Z,94236.08
2018-06-14T23:53:20.965Z,94237.19
2018-06-14T23:55:47.579Z,94239.16
2018-06-14T23:58:14.312Z,94235.16
